Time;durP1;ratioP1;P1;durP2;ratioP2;P2;SDS_P1;SDS_P2;PMS_P1;PMS_P2;Temp;Humidity;BMP_temperature;BMP_pressure;BME280_temperature;BME280_humidity;BME280_pressure;Samples;Min_cycle;Max_cycle;Signal;HPM_P1;HPM_P2
2023/01/22 00:00:45;;;;;;;1.05;1.05;;;;;;;;;;5058991;28;20212;-66
2023/01/22 00:03:12;;;;;;;1.33;1.23;;;;;;;;;;5058732;28;20468;-66
2023/01/22 00:05:40;;;;;;;1.20;1.10;;;;;;;;;;5058494;28;20229;-66
2023/01/22 00:08:07;;;;;;;1.40;1.30;;;;;;;;;;5058465;28;20260;-67
2023/01/22 00:10:35;;;;;;;1.25;1.15;;;;;;;;;;5058985;28;20204;-67
2023/01/22 00:13:03;;;;;;;1.20;1.10;;;;;;;;;;5058614;28;20212;-67
2023/01/22 00:15:31;;;;;;;0.93;0.93;;;;;;;;;;5058801;28;20209;-67
2023/01/22 00:18:00;;;;;;;1.23;1.13;;;;;;;;;;5058527;28;20274;-66
2023/01/22 00:20:28;;;;;;;1.25;1.15;;;;;;;;;;5057968;28;20291;-67
2023/01/22 00:22:56;;;;;;;1.25;1.17;;;;;;;;;;5058613;28;20197;-66
2023/01/22 00:25:24;;;;;;;1.25;1.15;;;;;;;;;;5058469;28;20225;-66
2023/01/22 00:27:52;;;;;;;1.00;1.00;;;;;;;;;;5058259;28;20271;-66
2023/01/22 00:30:20;;;;;;;0.98;0.98;;;;;;;;;;5058404;28;20205;-66
2023/01/22 00:32:48;;;;;;;0.93;0.93;;;;;;;;;;5058050;28;20205;-67
2023/01/22 00:35:17;;;;;;;1.00;0.95;;;;;;;;;;5058066;28;20267;-67
2023/01/22 00:37:47;;;;;;;0.93;0.93;;;;;;;;;;5058468;28;20220;-66
2023/01/22 00:40:15;;;;;;;0.80;0.80;;;;;;;;;;5058197;28;20208;-67
2023/01/22 00:42:43;;;;;;;1.30;1.10;;;;;;;;;;5057858;28;20205;-67
2023/01/22 00:45:11;;;;;;;1.05;0.95;;;;;;;;;;5057811;28;20303;-67
2023/01/22 00:47:38;;;;;;;1.02;0.95;;;;;;;;;;5057945;28;20205;-67
2023/01/22 00:50:07;;;;;;;0.90;0.90;;;;;;;;;;5057899;28;20209;-66
2023/01/22 00:52:37;;;;;;;1.27;0.95;;;;;;;;;;5058111;28;20576;-67
2023/01/22 00:55:05;;;;;;;0.90;0.90;;;;;;;;;;5058213;28;20968;-66
2023/01/22 00:57:33;;;;;;;0.82;0.82;;;;;;;;;;5057550;28;20248;-67
2023/01/22 01:00:01;;;;;;;0.90;0.90;;;;;;;;;;5057956;28;20248;-67
2023/01/22 01:02:29;;;;;;;0.77;0.77;;;;;;;;;;5057977;28;20215;-67
2023/01/22 01:04:56;;;;;;;0.90;0.90;;;;;;;;;;5058161;28;20227;-67
2023/01/22 01:07:24;;;;;;;0.93;0.93;;;;;;;;;;5058034;28;20232;-67
2023/01/22 01:09:53;;;;;;;0.90;0.90;;;;;;;;;;5057760;28;20584;-67
2023/01/22 01:12:21;;;;;;;0.77;0.77;;;;;;;;;;5065161;28;20243;-67
2023/01/22 01:14:54;;;;;;;0.80;0.80;;;;;;;;;;5080979;28;20587;-67
2023/01/22 01:17:23;;;;;;;0.70;0.70;;;;;;;;;;5081374;28;20269;-67
2023/01/22 01:19:51;;;;;;;0.90;0.90;;;;;;;;;;5079690;28;20262;-67
2023/01/22 01:22:19;;;;;;;0.80;0.80;;;;;;;;;;5079316;28;20278;-68
2023/01/22 01:24:47;;;;;;;0.70;0.70;;;;;;;;;;5077644;28;20322;-67
2023/01/22 01:27:16;;;;;;;0.80;0.80;;;;;;;;;;5076585;28;20228;-67
2023/01/22 01:29:44;;;;;;;0.80;0.80;;;;;;;;;;5076512;28;20439;-67
2023/01/22 01:32:13;;;;;;;0.80;0.80;;;;;;;;;;5077105;28;20247;-66
2023/01/22 01:34:42;;;;;;;0.80;0.80;;;;;;;;;;5076109;28;20204;-67
2023/01/22 01:37:10;;;;;;;0.93;0.90;;;;;;;;;;5076526;28;20197;-67
2023/01/22 01:39:38;;;;;;;0.90;0.90;;;;;;;;;;5077568;28;20204;-66
2023/01/22 01:42:06;;;;;;;0.80;0.80;;;;;;;;;;5078776;28;20212;-67
2023/01/22 01:44:38;;;;;;;0.80;0.80;;;;;;;;;;5078749;28;20239;-67
2023/01/22 01:47:09;;;;;;;0.60;0.60;;;;;;;;;;5077210;28;20232;-67
2023/01/22 01:49:39;;;;;;;0.80;0.80;;;;;;;;;;5077257;28;20219;-67
2023/01/22 01:52:09;;;;;;;0.80;0.80;;;;;;;;;;5077310;28;20291;-67
2023/01/22 01:54:38;;;;;;;0.73;0.73;;;;;;;;;;5076350;28;20243;-67
2023/01/22 01:57:09;;;;;;;0.60;0.60;;;;;;;;;;5086408;28;20278;-67
2023/01/22 01:59:40;;;;;;;0.70;0.70;;;;;;;;;;5098366;28;20234;-67
2023/01/22 02:02:08;;;;;;;0.60;0.60;;;;;;;;;;5098889;28;20237;-66
2023/01/22 02:04:37;;;;;;;0.75;0.75;;;;;;;;;;5098204;28;20204;-67
2023/01/22 02:07:05;;;;;;;0.70;0.70;;;;;;;;;;5098880;28;20227;-67
2023/01/22 02:09:33;;;;;;;0.68;0.68;;;;;;;;;;5098934;28;20207;-67
2023/01/22 02:12:02;;;;;;;0.90;0.80;;;;;;;;;;5098219;28;20298;-67
2023/01/22 02:14:32;;;;;;;0.73;0.73;;;;;;;;;;5097158;28;20227;-67
2023/01/22 02:17:05;;;;;;;0.60;0.60;;;;;;;;;;5098322;28;20206;-66
2023/01/22 02:19:33;;;;;;;0.60;0.60;;;;;;;;;;5098077;28;20613;-66
2023/01/22 02:22:04;;;;;;;0.70;0.70;;;;;;;;;;5098900;28;20258;-67
2023/01/22 02:24:33;;;;;;;1.08;0.80;;;;;;;;;;5098179;28;20199;-67
2023/01/22 02:27:01;;;;;;;0.80;0.80;;;;;;;;;;5098216;28;20468;-66
2023/01/22 02:29:30;;;;;;;0.70;0.70;;;;;;;;;;5098304;28;20229;-67
2023/01/22 02:31:59;;;;;;;0.60;0.60;;;;;;;;;;5097436;28;20243;-67
2023/01/22 02:34:29;;;;;;;0.65;0.65;;;;;;;;;;5098190;28;20211;-67
2023/01/22 02:36:58;;;;;;;0.70;0.70;;;;;;;;;;5098537;28;20246;-67
2023/01/22 02:39:27;;;;;;;0.60;0.60;;;;;;;;;;5098474;28;20203;-67
2023/01/22 02:41:56;;;;;;;0.68;0.65;;;;;;;;;;5098417;28;20275;-67
2023/01/22 02:44:24;;;;;;;0.60;0.60;;;;;;;;;;5097537;28;20212;-67
2023/01/22 02:46:52;;;;;;;0.60;0.60;;;;;;;;;;5098434;28;20265;-67
2023/01/22 02:49:20;;;;;;;0.60;0.60;;;;;;;;;;5098227;28;20469;-67
2023/01/22 02:51:51;;;;;;;0.60;0.60;;;;;;;;;;5097935;28;20215;-67
2023/01/22 02:54:19;;;;;;;0.50;0.50;;;;;;;;;;5097037;28;20211;-67
2023/01/22 02:56:49;;;;;;;0.68;0.68;;;;;;;;;;5100584;28;20623;-66
2023/01/22 02:59:17;;;;;;;0.70;0.70;;;;;;;;;;5103127;28;20207;-67
2023/01/22 03:01:47;;;;;;;0.68;0.68;;;;;;;;;;5102595;28;20218;-66
2023/01/22 03:04:16;;;;;;;0.60;0.60;;;;;;;;;;5102156;28;20618;-67
2023/01/22 03:06:45;;;;;;;0.70;0.70;;;;;;;;;;5101949;28;20227;-67
2023/01/22 03:09:14;;;;;;;0.80;0.80;;;;;;;;;;5101331;28;20548;-67
2023/01/22 03:11:43;;;;;;;0.70;0.70;;;;;;;;;;5101363;28;20525;-66
2023/01/22 03:22:29;;;;;;;0.75;0.75;;;;;;;;;;5101281;28;20260;-67
2023/01/22 03:25:00;;;;;;;0.65;0.65;;;;;;;;;;5101640;28;20215;-67
2023/01/22 03:27:30;;;;;;;0.60;0.60;;;;;;;;;;5100412;28;20447;-66
2023/01/22 03:29:59;;;;;;;0.80;0.80;;;;;;;;;;5100524;28;20213;-67
2023/01/22 03:32:28;;;;;;;0.70;0.70;;;;;;;;;;5100299;28;20204;-67
2023/01/22 03:34:56;;;;;;;0.85;0.85;;;;;;;;;;5100869;28;20253;-67
2023/01/22 03:37:23;;;;;;;0.68;0.68;;;;;;;;;;5100639;28;20273;-68
2023/01/22 03:39:53;;;;;;;1.00;0.90;;;;;;;;;;5100987;28;20302;-67
2023/01/22 03:42:22;;;;;;;0.70;0.70;;;;;;;;;;5100871;28;20203;-68
2023/01/22 03:44:50;;;;;;;0.90;0.90;;;;;;;;;;5100470;28;20204;-67
2023/01/22 03:47:20;;;;;;;0.70;0.70;;;;;;;;;;5100664;28;20280;-68
2023/01/22 03:49:48;;;;;;;0.70;0.70;;;;;;;;;;5100775;28;20204;-67
2023/01/22 03:52:18;;;;;;;0.75;0.75;;;;;;;;;;5100514;28;20199;-67
2023/01/22 03:54:46;;;;;;;0.65;0.65;;;;;;;;;;5101022;28;20583;-67
2023/01/22 03:57:14;;;;;;;0.80;0.80;;;;;;;;;;5099895;28;20273;-68
2023/01/22 03:59:42;;;;;;;0.70;0.70;;;;;;;;;;5100569;28;20268;-67
2023/01/22 04:02:11;;;;;;;0.75;0.75;;;;;;;;;;5100487;28;20199;-66
2023/01/22 04:04:43;;;;;;;1.55;1.00;;;;;;;;;;5099977;28;20269;-67
2023/01/22 04:07:11;;;;;;;0.80;0.80;;;;;;;;;;5099909;28;20227;-67
2023/01/22 04:09:39;;;;;;;0.88;0.82;;;;;;;;;;5100523;28;20216;-67
2023/01/22 04:12:08;;;;;;;0.75;0.75;;;;;;;;;;5082055;28;20223;-67
2023/01/22 04:17:25;;;;;;;0.85;0.85;;;;;;;;;;5099325;28;20203;-67
2023/01/22 04:19:55;;;;;;;0.80;0.80;;;;;;;;;;5100345;28;20265;-67
2023/01/22 04:22:25;;;;;;;1.00;0.90;;;;;;;;;;5100069;28;20268;-67
2023/01/22 04:24:53;;;;;;;0.90;0.90;;;;;;;;;;5100154;28;20215;-67
2023/01/22 04:27:21;;;;;;;0.73;0.73;;;;;;;;;;5099084;28;20543;-66
2023/01/22 04:29:49;;;;;;;0.77;0.77;;;;;;;;;;5099860;28;20196;-66
2023/01/22 04:32:19;;;;;;;0.98;0.80;;;;;;;;;;5099990;28;20273;-66
2023/01/22 04:34:47;;;;;;;0.80;0.80;;;;;;;;;;5099412;28;20764;-67
2023/01/22 04:37:16;;;;;;;0.82;0.82;;;;;;;;;;5099818;28;20199;-67
2023/01/22 04:39:45;;;;;;;1.00;1.00;;;;;;;;;;5099920;28;20268;-66
2023/01/22 04:42:14;;;;;;;0.80;0.80;;;;;;;;;;5099298;28;20296;-66
2023/01/22 04:44:42;;;;;;;0.80;0.80;;;;;;;;;;5099583;28;20206;-67
2023/01/22 04:47:10;;;;;;;0.98;0.98;;;;;;;;;;5099785;28;20425;-66
2023/01/22 04:49:39;;;;;;;0.77;0.77;;;;;;;;;;5099797;28;20242;-67
2023/01/22 04:52:07;;;;;;;0.80;0.80;;;;;;;;;;5099518;28;20199;-66
2023/01/22 04:54:37;;;;;;;0.80;0.80;;;;;;;;;;5098224;28;20276;-67
2023/01/22 04:57:05;;;;;;;1.10;1.00;;;;;;;;;;5097616;28;20326;-66
2023/01/22 04:59:34;;;;;;;0.70;0.70;;;;;;;;;;5100822;28;20571;-67
2023/01/22 05:02:02;;;;;;;0.85;0.85;;;;;;;;;;5099405;28;20294;-67
2023/01/22 05:04:30;;;;;;;0.80;0.80;;;;;;;;;;5099169;28;20221;-67
2023/01/22 05:06:58;;;;;;;0.95;0.95;;;;;;;;;;5099433;28;20239;-66
2023/01/22 05:09:27;;;;;;;0.70;0.70;;;;;;;;;;5098146;28;20219;-67
2023/01/22 05:11:57;;;;;;;0.90;0.90;;;;;;;;;;5097388;28;20212;-66
2023/01/22 05:14:25;;;;;;;1.02;1.02;;;;;;;;;;5097313;28;20203;-66
2023/01/22 05:16:53;;;;;;;0.75;0.75;;;;;;;;;;5097901;28;20203;-66
2023/01/22 05:19:22;;;;;;;0.80;0.80;;;;;;;;;;5097028;28;20212;-66
2023/01/22 05:21:50;;;;;;;0.85;0.85;;;;;;;;;;5097038;28;20204;-66
2023/01/22 05:24:19;;;;;;;0.90;0.90;;;;;;;;;;5096674;28;20264;-66
2023/01/22 05:26:47;;;;;;;0.70;0.70;;;;;;;;;;5097596;28;20516;-66
2023/01/22 05:29:17;;;;;;;1.00;0.90;;;;;;;;;;5097561;28;20252;-66
2023/01/22 05:31:46;;;;;;;0.90;0.90;;;;;;;;;;5097273;28;20214;-66
2023/01/22 05:34:14;;;;;;;1.00;0.90;;;;;;;;;;5097111;28;20203;-67
2023/01/22 05:36:42;;;;;;;0.88;0.80;;;;;;;;;;5097113;28;20232;-66
2023/01/22 05:39:09;;;;;;;0.80;0.80;;;;;;;;;;5096580;28;20204;-66
2023/01/22 05:41:36;;;;;;;0.88;0.88;;;;;;;;;;5096930;28;20658;-66
2023/01/22 05:44:04;;;;;;;0.70;0.70;;;;;;;;;;5097010;28;20476;-66
2023/01/22 05:46:33;;;;;;;1.15;0.90;;;;;;;;;;5097043;28;20295;-66
2023/01/22 05:49:01;;;;;;;0.98;0.98;;;;;;;;;;5097412;28;20294;-66
2023/01/22 05:51:28;;;;;;;0.80;0.80;;;;;;;;;;5096549;28;20290;-66
2023/01/22 05:53:56;;;;;;;0.93;0.85;;;;;;;;;;5097506;28;20230;-66
2023/01/22 05:56:23;;;;;;;1.10;1.00;;;;;;;;;;5097016;28;20203;-66
2023/01/22 05:58:50;;;;;;;0.88;0.88;;;;;;;;;;5096560;28;20246;-66
2023/01/22 06:01:18;;;;;;;0.80;0.80;;;;;;;;;;5097306;28;20302;-66
2023/01/22 06:03:47;;;;;;;0.80;0.80;;;;;;;;;;5096658;28;20401;-67
2023/01/22 06:06:16;;;;;;;0.80;0.80;;;;;;;;;;5097082;28;20210;-67
2023/01/22 06:08:43;;;;;;;0.93;0.90;;;;;;;;;;5096763;28;20633;-66
2023/01/22 06:11:11;;;;;;;1.45;0.88;;;;;;;;;;5096922;28;20535;-67
2023/01/22 06:13:39;;;;;;;0.90;0.90;;;;;;;;;;5096737;28;20239;-66
2023/01/22 06:16:07;;;;;;;0.80;0.80;;;;;;;;;;5097058;28;20567;-66
2023/01/22 06:18:34;;;;;;;0.80;0.80;;;;;;;;;;5096429;28;20226;-67
2023/01/22 06:21:05;;;;;;;1.10;1.00;;;;;;;;;;5097169;28;20241;-66
2023/01/22 06:23:32;;;;;;;1.13;1.00;;;;;;;;;;5096490;28;20211;-66
2023/01/22 06:26:00;;;;;;;1.00;1.00;;;;;;;;;;5096883;28;20204;-66
2023/01/22 06:28:28;;;;;;;1.10;1.00;;;;;;;;;;5095945;28;20225;-66
2023/01/22 06:30:58;;;;;;;1.00;1.00;;;;;;;;;;5098998;28;20268;-67
2023/01/22 06:33:25;;;;;;;0.85;0.85;;;;;;;;;;5100824;28;20203;-67
2023/01/22 06:35:56;;;;;;;0.80;0.80;;;;;;;;;;5100865;28;20218;-66
2023/01/22 06:38:25;;;;;;;1.17;0.88;;;;;;;;;;5101084;28;20508;-67
2023/01/22 06:40:53;;;;;;;0.90;0.90;;;;;;;;;;5100498;28;20203;-66
2023/01/22 06:43:20;;;;;;;0.82;0.82;;;;;;;;;;5100229;28;20287;-67
2023/01/22 06:45:47;;;;;;;0.77;0.77;;;;;;;;;;5099766;28;20208;-68
2023/01/22 06:48:15;;;;;;;0.90;0.88;;;;;;;;;;5099328;28;20318;-66
2023/01/22 06:50:42;;;;;;;0.93;0.90;;;;;;;;;;5100267;28;20204;-66
2023/01/22 06:53:10;;;;;;;0.80;0.80;;;;;;;;;;5099590;28;20298;-66
2023/01/22 06:55:39;;;;;;;1.00;0.90;;;;;;;;;;5100474;28;20290;-66
2023/01/22 06:58:06;;;;;;;0.80;0.80;;;;;;;;;;5099735;28;20520;-67
2023/01/22 07:00:33;;;;;;;0.90;0.90;;;;;;;;;;5099905;28;20286;-67
2023/01/22 07:03:01;;;;;;;1.00;0.95;;;;;;;;;;5099989;28;20207;-66
2023/01/22 07:05:28;;;;;;;1.02;1.02;;;;;;;;;;5099690;28;20215;-66
2023/01/22 07:07:56;;;;;;;0.88;0.88;;;;;;;;;;5099743;28;20281;-66
2023/01/22 07:10:23;;;;;;;0.90;0.90;;;;;;;;;;5099581;28;20298;-66
2023/01/22 07:12:55;;;;;;;0.95;0.95;;;;;;;;;;5099680;28;20204;-66
2023/01/22 07:15:22;;;;;;;0.85;0.85;;;;;;;;;;5099259;28;20211;-66
2023/01/22 07:17:51;;;;;;;1.10;1.00;;;;;;;;;;5099681;28;20238;-66
2023/01/22 07:20:19;;;;;;;0.90;0.90;;;;;;;;;;5099168;28;20203;-66
2023/01/22 07:22:46;;;;;;;0.80;0.80;;;;;;;;;;5099253;28;20486;-66
2023/01/22 07:25:13;;;;;;;0.95;0.95;;;;;;;;;;5098969;28;20389;-65
2023/01/22 07:27:41;;;;;;;1.02;1.00;;;;;;;;;;5098992;28;20637;-66
2023/01/22 07:30:11;;;;;;;1.58;1.10;;;;;;;;;;5099158;28;20227;-66
2023/01/22 07:32:38;;;;;;;1.02;1.00;;;;;;;;;;5098622;28;20214;-67
2023/01/22 07:35:06;;;;;;;1.25;1.17;;;;;;;;;;5099020;28;20203;-65
2023/01/22 07:37:33;;;;;;;0.88;0.88;;;;;;;;;;5099013;28;20298;-66
2023/01/22 07:40:01;;;;;;;1.17;1.08;;;;;;;;;;5098621;28;20286;-66
2023/01/22 07:42:28;;;;;;;1.05;1.00;;;;;;;;;;5097117;28;20311;-68
2023/01/22 07:44:55;;;;;;;1.15;1.05;;;;;;;;;;5098485;28;20580;-67
2023/01/22 07:47:24;;;;;;;1.20;1.10;;;;;;;;;;5098954;28;20214;-66
2023/01/22 07:49:51;;;;;;;1.20;1.10;;;;;;;;;;5097989;28;20208;-67
2023/01/22 07:52:19;;;;;;;1.40;1.30;;;;;;;;;;5097344;28;20214;-66
2023/01/22 07:54:46;;;;;;;1.10;1.10;;;;;;;;;;5097277;28;20302;-68
2023/01/22 07:57:15;;;;;;;1.20;1.13;;;;;;;;;;5097120;28;20588;-66
2023/01/22 07:59:42;;;;;;;1.30;1.20;;;;;;;;;;5096778;28;20298;-67
2023/01/22 08:02:13;;;;;;;0.98;0.98;;;;;;;;;;5096787;28;20204;-67
2023/01/22 08:04:43;;;;;;;1.00;1.00;;;;;;;;;;5096664;28;20226;-66
2023/01/22 08:07:15;;;;;;;1.08;0.98;;;;;;;;;;5097487;28;20330;-66
2023/01/22 08:09:43;;;;;;;1.20;1.10;;;;;;;;;;5097938;28;20209;-67
2023/01/22 08:12:10;;;;;;;1.23;1.13;;;;;;;;;;5097484;28;20290;-66
2023/01/22 08:14:37;;;;;;;1.30;1.20;;;;;;;;;;5097800;28;20195;-66
2023/01/22 08:17:05;;;;;;;1.20;1.10;;;;;;;;;;5097227;28;20571;-67
2023/01/22 08:19:32;;;;;;;1.00;1.00;;;;;;;;;;5097866;28;20303;-67
2023/01/22 08:22:01;;;;;;;1.25;1.15;;;;;;;;;;5097438;28;20213;-67
2023/01/22 08:24:28;;;;;;;1.30;1.20;;;;;;;;;;5097489;28;20310;-67
2023/01/22 08:26:56;;;;;;;1.20;1.10;;;;;;;;;;5097420;28;20286;-67
2023/01/22 08:29:23;;;;;;;1.33;1.20;;;;;;;;;;5096315;28;20318;-66
2023/01/22 08:31:51;;;;;;;1.23;1.13;;;;;;;;;;5097450;28;20294;-66
2023/01/22 08:34:19;;;;;;;1.40;1.30;;;;;;;;;;5097490;28;20210;-66
2023/01/22 08:36:46;;;;;;;1.40;1.30;;;;;;;;;;5097131;28;20492;-66
2023/01/22 08:39:15;;;;;;;1.40;1.30;;;;;;;;;;5097307;28;20532;-67
2023/01/22 08:41:42;;;;;;;1.40;1.30;;;;;;;;;;5097195;28;20286;-67
2023/01/22 08:44:13;;;;;;;1.20;1.10;;;;;;;;;;5097021;28;20204;-66
2023/01/22 08:46:40;;;;;;;1.35;1.25;;;;;;;;;;5096947;28;20203;-66
2023/01/22 08:49:07;;;;;;;1.27;1.17;;;;;;;;;;5097108;28;20565;-67
2023/01/22 08:51:35;;;;;;;1.38;1.27;;;;;;;;;;5096709;28;20293;-66
2023/01/22 08:54:03;;;;;;;1.60;1.23;;;;;;;;;;5096136;28;20674;-67
2023/01/22 08:56:31;;;;;;;1.30;1.20;;;;;;;;;;5095832;28;20770;-66
2023/01/22 08:59:05;;;;;;;1.92;1.40;;;;;;;;;;5096568;28;20615;-67
2023/01/22 09:01:32;;;;;;;1.35;1.25;;;;;;;;;;5096679;28;20265;-67
2023/01/22 09:04:00;;;;;;;1.38;1.27;;;;;;;;;;5096804;28;20294;-66
2023/01/22 09:06:28;;;;;;;1.25;1.15;;;;;;;;;;5095946;28;20763;-66
2023/01/22 09:08:57;;;;;;;1.30;1.20;;;;;;;;;;5096594;28;20219;-66
2023/01/22 09:11:25;;;;;;;1.50;1.40;;;;;;;;;;5096294;28;20204;-66
2023/01/22 09:13:55;;;;;;;1.30;1.20;;;;;;;;;;5096562;28;20203;-66
2023/01/22 09:16:22;;;;;;;1.40;1.30;;;;;;;;;;5096236;28;20203;-66
2023/01/22 09:18:49;;;;;;;1.40;1.30;;;;;;;;;;5096465;28;20554;-66
2023/01/22 09:21:17;;;;;;;1.50;1.30;;;;;;;;;;5095924;28;20287;-66
2023/01/22 09:23:44;;;;;;;1.45;1.35;;;;;;;;;;5096506;28;20203;-66
2023/01/22 09:26:12;;;;;;;1.40;1.30;;;;;;;;;;5096275;28;20337;-67
2023/01/22 09:28:39;;;;;;;1.40;1.30;;;;;;;;;;5096648;28;20238;-66
2023/01/22 09:31:08;;;;;;;2.25;1.25;;;;;;;;;;5095706;28;20242;-67
2023/01/22 09:33:36;;;;;;;1.20;1.10;;;;;;;;;;5095943;28;20204;-67
2023/01/22 09:36:10;;;;;;;1.40;1.30;;;;;;;;;;5094693;28;20234;-66
2023/01/22 09:38:38;;;;;;;1.40;1.30;;;;;;;;;;5072259;28;20274;-67
2023/01/22 09:41:06;;;;;;;2.17;1.30;;;;;;;;;;5075878;28;20215;-66
2023/01/22 09:43:35;;;;;;;1.67;1.50;;;;;;;;;;5076281;28;20291;-67
2023/01/22 09:46:05;;;;;;;1.60;1.33;;;;;;;;;;5075615;28;20211;-67
2023/01/22 09:48:37;;;;;;;2.85;1.42;;;;;;;;;;5075941;28;20232;-67
2023/01/22 09:51:05;;;;;;;1.50;1.40;;;;;;;;;;5076753;28;20638;-67
2023/01/22 09:53:33;;;;;;;1.48;1.33;;;;;;;;;;5076819;28;20552;-67
2023/01/22 09:56:02;;;;;;;1.83;1.35;;;;;;;;;;5076088;28;20215;-66
2023/01/22 09:58:29;;;;;;;1.42;1.33;;;;;;;;;;5076431;28;20744;-66
2023/01/22 10:00:57;;;;;;;1.70;1.50;;;;;;;;;;5076161;28;20286;-67
2023/01/22 10:03:27;;;;;;;5.25;4.80;;;;;;;;;;5075521;28;20211;-67
2023/01/22 10:05:58;;;;;;;14.38;12.98;;;;;;;;;;5075350;28;20580;-66
2023/01/22 10:08:27;;;;;;;13.93;10.43;;;;;;;;;;5075671;28;20483;-67
2023/01/22 10:10:54;;;;;;;11.45;10.27;;;;;;;;;;5076754;28;20230;-67
2023/01/22 10:13:23;;;;;;;11.10;9.93;;;;;;;;;;5075848;28;20239;-66
2023/01/22 10:15:51;;;;;;;9.70;8.70;;;;;;;;;;5074611;28;20237;-66
2023/01/22 10:18:25;;;;;;;10.50;9.40;;;;;;;;;;5075351;28;20211;-67
2023/01/22 10:20:54;;;;;;;10.35;9.20;;;;;;;;;;5075511;28;20195;-67
2023/01/22 10:23:24;;;;;;;10.40;9.23;;;;;;;;;;5075477;28;20300;-66
2023/01/22 10:25:53;;;;;;;9.95;8.93;;;;;;;;;;5075050;28;20200;-67
2023/01/22 10:28:25;;;;;;;9.82;8.23;;;;;;;;;;5074954;28;20509;-68
2023/01/22 10:30:56;;;;;;;8.80;8.00;;;;;;;;;;5075219;28;20258;-67
2023/01/22 10:33:24;;;;;;;9.52;8.63;;;;;;;;;;5075365;28;20212;-67
2023/01/22 10:35:53;;;;;;;8.50;7.70;;;;;;;;;;5074996;28;20192;-67
2023/01/22 10:38:25;;;;;;;8.70;7.80;;;;;;;;;;5075226;28;20242;-67
2023/01/22 10:40:54;;;;;;;8.52;7.63;;;;;;;;;;5075028;28;20204;-67
2023/01/22 10:43:23;;;;;;;8.48;7.68;;;;;;;;;;5075239;28;20296;-66
2023/01/22 10:45:52;;;;;;;8.82;7.93;;;;;;;;;;5075125;28;20283;-66
2023/01/22 10:48:19;;;;;;;8.70;7.90;;;;;;;;;;5074155;28;20210;-66
2023/01/22 10:50:47;;;;;;;8.05;7.25;;;;;;;;;;5074865;28;20439;-67
2023/01/22 10:53:24;;;;;;;8.30;7.50;;;;;;;;;;5075127;28;20240;-67
2023/01/22 10:55:55;;;;;;;7.22;6.53;;;;;;;;;;5074863;28;20204;-67
2023/01/22 10:58:24;;;;;;;7.88;7.13;;;;;;;;;;5075196;28;20231;-67
2023/01/22 11:00:59;;;;;;;7.30;6.60;;;;;;;;;;5074985;28;20574;-66
2023/01/22 11:03:30;;;;;;;7.22;6.53;;;;;;;;;;5068064;28;20207;-66
2023/01/22 11:05:59;;;;;;;11.45;10.25;;;;;;;;;;5075557;28;20550;-66
2023/01/22 11:08:30;;;;;;;17.17;14.57;;;;;;;;;;5075595;28;20307;-67
2023/01/22 11:11:00;;;;;;;17.85;15.32;;;;;;;;;;5075052;28;20213;-68
2023/01/22 11:13:31;;;;;;;20.30;18.10;;;;;;;;;;5075695;28;20236;-67
2023/01/22 11:16:00;;;;;;;21.35;19.05;;;;;;;;;;5075332;28;20216;-67
2023/01/22 11:18:31;;;;;;;18.92;15.90;;;;;;;;;;5077349;28;20253;-67
2023/01/22 11:20:59;;;;;;;21.05;16.80;;;;;;;;;;5078842;28;20246;-67
2023/01/22 11:23:32;;;;;;;17.63;15.60;;;;;;;;;;5078457;28;20577;-66
2023/01/22 11:26:04;;;;;;;17.58;15.77;;;;;;;;;;5078939;28;20204;-67
2023/01/22 11:28:40;;;;;;;17.63;15.65;;;;;;;;;;5078236;28;20307;-67
2023/01/22 11:31:22;;;;;;;17.45;15.45;;;;;;;;;;5078822;28;20203;-66
2023/01/22 11:34:14;;;;;;;17.27;15.10;;;;;;;;;;5075110;28;20296;-67
2023/01/22 11:36:44;;;;;;;17.63;15.45;;;;;;;;;;5058655;28;20316;-67
2023/01/22 11:39:15;;;;;;;18.02;14.98;;;;;;;;;;5077917;28;20201;-67
2023/01/22 11:41:54;;;;;;;16.60;14.73;;;;;;;;;;5078766;28;20619;-67
2023/01/22 11:44:39;;;;;;;15.93;14.00;;;;;;;;;;5078065;28;20215;-66
2023/01/22 11:47:13;;;;;;;15.40;13.70;;;;;;;;;;5077923;28;20561;-67
2023/01/22 11:49:46;;;;;;;16.20;13.90;;;;;;;;;;5078091;28;20791;-67
2023/01/22 11:52:22;;;;;;;14.85;13.27;;;;;;;;;;5076715;28;20586;-66
2023/01/22 11:54:56;;;;;;;16.35;14.63;;;;;;;;;;5077950;28;20208;-66
2023/01/22 11:57:26;;;;;;;15.13;13.02;;;;;;;;;;5077946;28;20322;-66
2023/01/22 12:00:24;;;;;;;14.90;13.35;;;;;;;;;;5078138;28;20300;-66
2023/01/22 12:03:01;;;;;;;13.35;12.05;;;;;;;;;;5078383;28;20291;-67
2023/01/22 12:05:33;;;;;;;14.50;12.90;;;;;;;;;;5077921;28;20580;-67
2023/01/22 12:08:11;;;;;;;14.13;12.48;;;;;;;;;;5078024;28;20215;-67
2023/01/22 12:10:56;;;;;;;13.75;11.93;;;;;;;;;;5077547;28;20223;-66
2023/01/22 12:13:30;;;;;;;13.85;12.27;;;;;;;;;;5077525;28;20315;-66
2023/01/22 12:16:02;;;;;;;13.43;12.02;;;;;;;;;;5077349;28;20256;-67
2023/01/22 12:18:43;;;;;;;13.82;12.07;;;;;;;;;;5077669;28;20205;-67
2023/01/22 12:21:14;;;;;;;12.50;11.05;;;;;;;;;;5077720;28;20208;-67
2023/01/22 12:23:45;;;;;;;21.90;16.60;;;;;;;;;;5077576;28;20288;-67
2023/01/22 12:26:14;;;;;;;21.48;17.38;;;;;;;;;;5077292;28;20299;-66
2023/01/22 12:28:45;;;;;;;20.48;16.17;;;;;;;;;;5076815;28;20218;-67
2023/01/22 12:31:16;;;;;;;17.98;15.68;;;;;;;;;;5076951;28;20204;-67
2023/01/22 12:33:44;;;;;;;124.72;81.57;;;;;;;;;;5076979;28;20204;-67
2023/01/22 12:36:15;;;;;;;145.18;91.88;;;;;;;;;;5076586;28;20201;-67
2023/01/22 12:38:43;;;;;;;118.82;75.22;;;;;;;;;;5076852;28;20204;-67
2023/01/22 12:41:19;;;;;;;110.78;67.45;;;;;;;;;;5077446;28;20235;-67
2023/01/22 12:43:51;;;;;;;101.10;64.72;;;;;;;;;;5076591;28;20218;-66
2023/01/22 12:46:24;;;;;;;99.63;61.78;;;;;;;;;;5076433;28;20212;-67
2023/01/22 12:48:55;;;;;;;92.38;58.67;;;;;;;;;;5076883;28;20205;-67
2023/01/22 12:51:27;;;;;;;87.55;57.95;;;;;;;;;;5076916;28;20299;-66
2023/01/22 12:53:54;;;;;;;86.90;57.53;;;;;;;;;;5076978;28;20214;-67
2023/01/22 12:56:32;;;;;;;84.68;55.30;;;;;;;;;;5076405;28;20291;-67
2023/01/22 12:59:01;;;;;;;77.40;53.47;;;;;;;;;;5076397;28;20230;-67
2023/01/22 13:01:35;;;;;;;74.50;50.90;;;;;;;;;;5076383;28;20308;-66
2023/01/22 13:04:03;;;;;;;73.88;49.95;;;;;;;;;;5076444;28;20219;-66
2023/01/22 13:06:32;;;;;;;74.95;49.85;;;;;;;;;;5076430;28;20208;-68
2023/01/22 13:09:00;;;;;;;69.00;48.75;;;;;;;;;;5076560;28;20208;-67
2023/01/22 13:11:28;;;;;;;69.63;46.92;;;;;;;;;;5075998;28;20298;-66
2023/01/22 13:13:57;;;;;;;63.50;44.08;;;;;;;;;;5076164;28;20203;-67
2023/01/22 13:16:31;;;;;;;60.90;43.65;;;;;;;;;;5076510;28;20302;-66
2023/01/22 13:18:59;;;;;;;59.33;42.60;;;;;;;;;;5074621;28;20227;-67
2023/01/22 13:21:27;;;;;;;54.97;41.28;;;;;;;;;;5076521;28;20758;-67
2023/01/22 13:23:58;;;;;;;57.28;39.58;;;;;;;;;;5076389;28;20627;-67
2023/01/22 13:26:27;;;;;;;56.38;38.53;;;;;;;;;;5075779;28;20295;-66
2023/01/22 13:28:56;;;;;;;52.70;38.00;;;;;;;;;;5075808;28;20295;-67
2023/01/22 13:31:23;;;;;;;50.97;36.90;;;;;;;;;;5075770;28;20223;-66
2023/01/22 13:33:56;;;;;;;50.50;35.38;;;;;;;;;;5076003;28;20210;-66
2023/01/22 13:36:23;;;;;;;46.78;34.95;;;;;;;;;;5075788;28;20303;-66
2023/01/22 13:38:54;;;;;;;48.60;34.00;;;;;;;;;;5076113;28;20230;-66
2023/01/22 13:41:33;;;;;;;43.92;32.38;;;;;;;;;;5075969;28;20307;-67
2023/01/22 13:44:01;;;;;;;45.55;32.35;;;;;;;;;;5075615;28;20204;-66
2023/01/22 13:46:29;;;;;;;42.42;31.67;;;;;;;;;;5075140;28;20232;-66
2023/01/22 13:49:08;;;;;;;42.58;30.38;;;;;;;;;;5075730;28;20207;-66
2023/01/22 13:51:36;;;;;;;40.30;30.05;;;;;;;;;;5075625;28;20302;-67
2023/01/22 13:54:04;;;;;;;39.70;29.95;;;;;;;;;;5075005;28;20215;-66
2023/01/22 13:56:32;;;;;;;39.90;29.42;;;;;;;;;;5076025;28;20306;-66
2023/01/22 13:59:17;;;;;;;34.17;26.90;;;;;;;;;;5075239;28;20204;-66
2023/01/22 14:01:45;;;;;;;34.63;25.23;;;;;;;;;;5074655;28;20238;-66
2023/01/22 14:04:36;;;;;;;35.15;26.30;;;;;;;;;;5075240;28;20236;-66
2023/01/22 14:07:05;;;;;;;30.90;23.75;;;;;;;;;;5075517;28;20501;-67
2023/01/22 14:09:34;;;;;;;32.63;24.33;;;;;;;;;;5075549;28;20281;-67
2023/01/22 14:12:12;;;;;;;32.05;23.63;;;;;;;;;;5075688;28;20262;-67
2023/01/22 14:14:40;;;;;;;30.30;22.60;;;;;;;;;;5075608;28;20291;-66
2023/01/22 14:17:08;;;;;;;67.60;53.20;;;;;;;;;;5074466;28;20200;-67
2023/01/22 14:19:37;;;;;;;50.85;38.85;;;;;;;;;;5075511;28;20238;-67
2023/01/22 14:22:04;;;;;;;48.50;39.10;;;;;;;;;;5075405;28;20196;-65
2023/01/22 14:24:32;;;;;;;51.25;38.47;;;;;;;;;;5075569;28;20291;-62
2023/01/22 14:26:59;;;;;;;41.88;35.20;;;;;;;;;;5075016;28;20212;-63
2023/01/22 14:29:27;;;;;;;42.33;34.58;;;;;;;;;;5075085;28;20563;-63
2023/01/22 14:31:55;;;;;;;40.85;33.42;;;;;;;;;;5075461;28;20205;-64
2023/01/22 14:34:22;;;;;;;36.58;31.08;;;;;;;;;;5074978;28;20346;-62
2023/01/22 14:36:51;;;;;;;33.30;28.55;;;;;;;;;;5075247;28;20541;-62
2023/01/22 14:39:20;;;;;;;31.35;27.35;;;;;;;;;;5075588;28;20723;-62
2023/01/22 14:41:50;;;;;;;30.48;26.80;;;;;;;;;;5075514;28;20204;-62
2023/01/22 14:44:17;;;;;;;27.63;24.63;;;;;;;;;;5075105;28;20204;-62
2023/01/22 14:46:44;;;;;;;28.25;23.48;;;;;;;;;;5075344;28;20204;-63
2023/01/22 14:49:12;;;;;;;24.92;21.88;;;;;;;;;;5075351;28;20611;-63
2023/01/22 14:51:40;;;;;;;23.10;20.52;;;;;;;;;;5077207;28;20311;-62
2023/01/22 14:54:08;;;;;;;23.50;20.90;;;;;;;;;;5079500;28;20218;-62
2023/01/22 14:56:36;;;;;;;21.48;19.10;;;;;;;;;;5079162;28;20326;-62
2023/01/22 14:59:04;;;;;;;20.45;17.05;;;;;;;;;;5078407;28;20299;-63